Terminal Aerodrome Forecast
Issued by NWS

Home | Current Version | Previous Version | Text Only | Print | Product List | Glossary On
Versions: 1 2 3 4 5 6 7 8 9 10 11 12 13 14 15 16 17 18 19 20 21 22 23 24 25 26 27 28 29 30 31 32
582
FTUS45 KREV 192329
TAFTRK
TAF
KTRK 192329Z 2000/2024 22013G20KT P6SM VCSH BKN020 OVC060
     FM200100 22010G15KT 5SM -RASN BKN020 OVC030
     FM200500 21011G19KT 5SM -RA BKN015 OVC025 WS020/24045KT
     FM201200 20015G28KT 3SM RA BR SCT008 OVC015 WS010/24050KT
     FM201800 20015G24KT 2SM RA BR BKN008 OVC012 WS005/25070KT=

USA.gov is the U.S. government's official web portal to all federal, state and local government web resources and services.